DAL4178 KJFK-KATL
Flight info
| Callsign | DAL4178 |
|---|---|
| Flight time | 1h 46m |
| Altitude | 38000 |
| Route | RBV Q430 BYRDD J48 MOL FLASK OZZZI2 |
| Aircraft | A339/H-SADE1E2E3GHIJ3J5M1P2RWXY/LB2D1 |
Departure
| Time | 2026-05-06 01:44 |
|---|---|
| Airport | John F. Kennedy International Airport (KJFK) |
Arrival
| Time | 2026-05-06 03:30 |
|---|---|
| Airport | Hartsfield Jackson Atlanta International Airport (KATL) |
| Time | Latitude | Longitude | Altitude | Speed | Heading |
|---|---|---|---|---|---|
| 2026-05-06 01:13 | 40.64075 | -73.78121 | 28 ft | 0 kts | 240° |
| 2026-05-06 01:28 | 40.64085 | -73.78097 | 28 ft | 4 kts | 240° |
| 2026-05-06 01:28 | 40.64096 | -73.78070 | 28 ft | 4 kts | 236° |
| 2026-05-06 01:28 | 40.64109 | -73.78045 | 27 ft | 4 kts | 199° |
| 2026-05-06 01:29 | 40.64129 | -73.78039 | 28 ft | 4 kts | 159° |
| 2026-05-06 01:29 | 40.64153 | -73.78053 | 27 ft | 3 kts | 150° |
| 2026-05-06 01:29 | 40.64159 | -73.78058 | 28 ft | 0 kts | 151° |
| 2026-05-06 01:34 | 40.64156 | -73.78056 | 29 ft | 1 kts | 151° |
| 2026-05-06 01:34 | 40.64143 | -73.78047 | 29 ft | 4 kts | 151° |
| 2026-05-06 01:34 | 40.64083 | -73.78002 | 29 ft | 17 kts | 150° |
| 2026-05-06 01:34 | 40.63952 | -73.77944 | 29 ft | 21 kts | 172° |
| 2026-05-06 01:35 | 40.63816 | -73.77923 | 29 ft | 19 kts | 172° |
| 2026-05-06 01:35 | 40.63690 | -73.77902 | 29 ft | 18 kts | 173° |
| 2026-05-06 01:35 | 40.63578 | -73.77854 | 27 ft | 16 kts | 136° |
| 2026-05-06 01:35 | 40.63526 | -73.77721 | 27 ft | 16 kts | 86° |
| 2026-05-06 01:36 | 40.63613 | -73.77624 | 31 ft | 20 kts | 31° |
| 2026-05-06 01:36 | 40.63764 | -73.77507 | 25 ft | 29 kts | 31° |
| 2026-05-06 01:36 | 40.63938 | -73.77370 | 27 ft | 29 kts | 30° |
| 2026-05-06 01:36 | 40.64113 | -73.77233 | 30 ft | 29 kts | 31° |
| 2026-05-06 01:37 | 40.64293 | -73.77092 | 29 ft | 31 kts | 31° |
| 2026-05-06 01:37 | 40.64438 | -73.76998 | 29 ft | 21 kts | 14° |
| 2026-05-06 01:37 | 40.64581 | -73.76932 | 28 ft | 23 kts | 31° |
| 2026-05-06 01:37 | 40.64722 | -73.76820 | 26 ft | 25 kts | 31° |
| 2026-05-06 01:38 | 40.64862 | -73.76710 | 28 ft | 17 kts | 30° |
| 2026-05-06 01:38 | 40.64971 | -73.76625 | 27 ft | 19 kts | 31° |
| 2026-05-06 01:38 | 40.65090 | -73.76529 | 27 ft | 21 kts | 40° |
| 2026-05-06 01:38 | 40.65095 | -73.76438 | 28 ft | 0 kts | 127° |
| 2026-05-06 01:39 | 40.65093 | -73.76436 | 28 ft | 2 kts | 133° |
| 2026-05-06 01:39 | 40.65079 | -73.76418 | 29 ft | 0 kts | 133° |
| 2026-05-06 01:40 | 40.65079 | -73.76417 | 29 ft | 0 kts | 133° |
| 2026-05-06 01:42 | 40.65073 | -73.76407 | 29 ft | 5 kts | 130° |
| 2026-05-06 01:43 | 40.65013 | -73.76367 | 28 ft | 14 kts | 178° |
| 2026-05-06 01:43 | 40.64977 | -73.76391 | 28 ft | 0 kts | 211° |
| 2026-05-06 01:43 | 40.64901 | -73.76450 | 28 ft | 50 kts | 210° |
| 2026-05-06 01:43 | 40.64334 | -73.76889 | 27 ft | 135 kts | 211° |
| 2026-05-06 01:44 | 40.63385 | -73.77667 | 277 ft | 177 kts | 210° |
| 2026-05-06 01:44 | 40.62316 | -73.78657 | 738 ft | 199 kts | 214° |
| 2026-05-06 01:44 | 40.61187 | -73.79837 | 1382 ft | 213 kts | 218° |
| 2026-05-06 01:44 | 40.60055 | -73.81135 | 2060 ft | 219 kts | 221° |
| 2026-05-06 01:45 | 40.58945 | -73.82537 | 2738 ft | 224 kts | 225° |
| 2026-05-06 01:45 | 40.57866 | -73.84039 | 3413 ft | 228 kts | 228° |
| 2026-05-06 01:45 | 40.56822 | -73.85640 | 4108 ft | 232 kts | 232° |
| 2026-05-06 01:45 | 40.55827 | -73.87323 | 4816 ft | 235 kts | 234° |
| 2026-05-06 01:46 | 40.54877 | -73.89096 | 5543 ft | 239 kts | 237° |
| 2026-05-06 01:46 | 40.53982 | -73.90950 | 6271 ft | 242 kts | 240° |
| 2026-05-06 01:46 | 40.53142 | -73.92878 | 6985 ft | 244 kts | 242° |
| 2026-05-06 01:46 | 40.52364 | -73.94877 | 7693 ft | 247 kts | 244° |
| 2026-05-06 01:47 | 40.51650 | -73.96943 | 8435 ft | 250 kts | 247° |
| 2026-05-06 01:47 | 40.50993 | -73.99071 | 9167 ft | 254 kts | 248° |
| 2026-05-06 01:47 | 40.49965 | -74.01022 | 9647 ft | 268 kts | 225° |
| 2026-05-06 01:47 | 40.48499 | -74.02600 | 10253 ft | 276 kts | 220° |
| 2026-05-06 01:48 | 40.46983 | -74.04283 | 10481 ft | 296 kts | 224° |
| 2026-05-06 01:48 | 40.45497 | -74.06279 | 10675 ft | 315 kts | 229° |
| 2026-05-06 01:48 | 40.44078 | -74.08521 | 11131 ft | 322 kts | 232° |
| 2026-05-06 01:48 | 40.42706 | -74.10858 | 11734 ft | 323 kts | 233° |
| 2026-05-06 01:49 | 40.41345 | -74.13229 | 12345 ft | 326 kts | 233° |
| 2026-05-06 01:49 | 40.39983 | -74.15607 | 13047 ft | 327 kts | 233° |
| 2026-05-06 01:49 | 40.38606 | -74.17999 | 13750 ft | 329 kts | 233° |
| 2026-05-06 01:49 | 40.37225 | -74.20391 | 14351 ft | 330 kts | 233° |
| 2026-05-06 01:50 | 40.35826 | -74.22798 | 14956 ft | 332 kts | 233° |
| 2026-05-06 01:50 | 40.34420 | -74.25214 | 15567 ft | 334 kts | 233° |
| 2026-05-06 01:50 | 40.33007 | -74.27646 | 16163 ft | 337 kts | 233° |
| 2026-05-06 01:50 | 40.31582 | -74.30091 | 16737 ft | 339 kts | 233° |
| 2026-05-06 01:51 | 40.29773 | -74.33191 | 17491 ft | 341 kts | 233° |
| 2026-05-06 01:51 | 40.28798 | -74.34861 | 17890 ft | 343 kts | 233° |
| 2026-05-06 01:51 | 40.27363 | -74.37321 | 18405 ft | 346 kts | 233° |
| 2026-05-06 01:51 | 40.25879 | -74.39859 | 18914 ft | 348 kts | 233° |
| 2026-05-06 01:52 | 40.24424 | -74.42347 | 19449 ft | 349 kts | 233° |
| 2026-05-06 01:52 | 40.22940 | -74.44876 | 19975 ft | 351 kts | 233° |
| 2026-05-06 01:52 | 40.21528 | -74.47495 | 20442 ft | 354 kts | 239° |
| 2026-05-06 01:52 | 40.20491 | -74.50427 | 20970 ft | 357 kts | 249° |
| 2026-05-06 01:53 | 40.19893 | -74.53585 | 21517 ft | 361 kts | 259° |
| 2026-05-06 01:53 | 40.19646 | -74.56869 | 22043 ft | 364 kts | 262° |
| 2026-05-06 01:53 | 40.19409 | -74.60181 | 22567 ft | 366 kts | 262° |
| 2026-05-06 01:53 | 40.19155 | -74.63502 | 23101 ft | 369 kts | 261° |
| 2026-05-06 01:54 | 40.18893 | -74.66848 | 23606 ft | 371 kts | 261° |
| 2026-05-06 01:54 | 40.18624 | -74.70219 | 24038 ft | 374 kts | 262° |
| 2026-05-06 01:54 | 40.18354 | -74.73611 | 24471 ft | 377 kts | 262° |
| 2026-05-06 01:54 | 40.18080 | -74.77027 | 24900 ft | 379 kts | 262° |
| 2026-05-06 01:55 | 40.17804 | -74.80473 | 25317 ft | 382 kts | 262° |
| 2026-05-06 01:55 | 40.17525 | -74.83942 | 25743 ft | 385 kts | 262° |
| 2026-05-06 01:55 | 40.17245 | -74.87423 | 26174 ft | 387 kts | 262° |
| 2026-05-06 01:55 | 40.16960 | -74.90929 | 26598 ft | 390 kts | 263° |
| 2026-05-06 01:56 | 40.16670 | -74.94479 | 27003 ft | 393 kts | 263° |
| 2026-05-06 01:56 | 40.16380 | -74.98039 | 27407 ft | 395 kts | 263° |
| 2026-05-06 01:56 | 40.16086 | -75.01623 | 27816 ft | 398 kts | 263° |
| 2026-05-06 01:56 | 40.15788 | -75.05230 | 28202 ft | 401 kts | 263° |
| 2026-05-06 01:57 | 40.15488 | -75.08866 | 28627 ft | 402 kts | 263° |
| 2026-05-06 01:57 | 40.15188 | -75.12500 | 29022 ft | 404 kts | 263° |
| 2026-05-06 01:57 | 40.14882 | -75.16173 | 29377 ft | 407 kts | 263° |
| 2026-05-06 01:57 | 40.14573 | -75.19866 | 29762 ft | 410 kts | 263° |
| 2026-05-06 01:58 | 40.14261 | -75.23576 | 30115 ft | 412 kts | 263° |
| 2026-05-06 01:58 | 40.13947 | -75.27310 | 30467 ft | 414 kts | 264° |
| 2026-05-06 01:58 | 40.13627 | -75.31059 | 30842 ft | 416 kts | 264° |
| 2026-05-06 01:58 | 40.13305 | -75.34801 | 31274 ft | 417 kts | 264° |
| 2026-05-06 01:59 | 40.12977 | -75.38568 | 31615 ft | 419 kts | 264° |
| 2026-05-06 01:59 | 40.12662 | -75.42357 | 31963 ft | 421 kts | 264° |
| 2026-05-06 01:59 | 40.12350 | -75.46131 | 32144 ft | 426 kts | 264° |
| 2026-05-06 01:59 | 40.12022 | -75.49988 | 32453 ft | 427 kts | 264° |
| 2026-05-06 02:00 | 40.11686 | -75.53842 | 32741 ft | 428 kts | 264° |
| 2026-05-06 02:00 | 40.11346 | -75.57715 | 32982 ft | 430 kts | 264° |
| 2026-05-06 02:00 | 40.11006 | -75.61596 | 33184 ft | 431 kts | 264° |
| 2026-05-06 02:00 | 40.10665 | -75.65488 | 33387 ft | 432 kts | 264° |
| 2026-05-06 02:01 | 40.10323 | -75.69387 | 33623 ft | 432 kts | 264° |
| 2026-05-06 02:01 | 40.09978 | -75.73286 | 33842 ft | 432 kts | 264° |
| 2026-05-06 02:01 | 40.09572 | -75.77164 | 34047 ft | 431 kts | 260° |
| 2026-05-06 02:01 | 40.08806 | -75.80963 | 34213 ft | 434 kts | 253° |
| 2026-05-06 02:02 | 40.07645 | -75.84619 | 34340 ft | 438 kts | 246° |
| 2026-05-06 02:02 | 40.06113 | -75.88055 | 34557 ft | 440 kts | 239° |
| 2026-05-06 02:02 | 40.04402 | -75.91362 | 34728 ft | 440 kts | 240° |
| 2026-05-06 02:02 | 40.02705 | -75.94686 | 34852 ft | 440 kts | 240° |
| 2026-05-06 02:03 | 40.01015 | -75.98015 | 35028 ft | 440 kts | 240° |
| 2026-05-06 02:03 | 39.99327 | -76.01341 | 35229 ft | 439 kts | 241° |
| 2026-05-06 02:03 | 39.97640 | -76.04659 | 35441 ft | 439 kts | 241° |
| 2026-05-06 02:03 | 39.95956 | -76.07966 | 35633 ft | 438 kts | 241° |
| 2026-05-06 02:04 | 39.94268 | -76.11278 | 35829 ft | 438 kts | 241° |
| 2026-05-06 02:04 | 39.92585 | -76.14574 | 35994 ft | 438 kts | 242° |
| 2026-05-06 02:04 | 39.90891 | -76.17885 | 36114 ft | 439 kts | 242° |
| 2026-05-06 02:04 | 39.89198 | -76.21195 | 36284 ft | 439 kts | 242° |
| 2026-05-06 02:05 | 39.87503 | -76.24502 | 36487 ft | 438 kts | 242° |
| 2026-05-06 02:05 | 39.85813 | -76.27796 | 36682 ft | 438 kts | 243° |
| 2026-05-06 02:05 | 39.84125 | -76.31086 | 36873 ft | 437 kts | 243° |
| 2026-05-06 02:05 | 39.82435 | -76.34375 | 37070 ft | 436 kts | 243° |
| 2026-05-06 02:06 | 39.80753 | -76.37646 | 37254 ft | 436 kts | 243° |
| 2026-05-06 02:06 | 39.79065 | -76.40927 | 37437 ft | 435 kts | 243° |
| 2026-05-06 02:06 | 39.77383 | -76.44190 | 37658 ft | 434 kts | 243° |
| 2026-05-06 02:06 | 39.75706 | -76.47442 | 37849 ft | 433 kts | 244° |
| 2026-05-06 02:07 | 39.72347 | -76.53938 | 37882 ft | 430 kts | 244° |
| 2026-05-06 02:07 | 39.69015 | -76.60373 | 37852 ft | 431 kts | 244° |
| 2026-05-06 02:08 | 39.65646 | -76.66880 | 37882 ft | 437 kts | 244° |
| 2026-05-06 02:08 | 39.62236 | -76.73448 | 37883 ft | 441 kts | 244° |
| 2026-05-06 02:09 | 39.58816 | -76.80008 | 37891 ft | 443 kts | 244° |
| 2026-05-06 02:09 | 39.55352 | -76.86641 | 37903 ft | 444 kts | 244° |
| 2026-05-06 02:10 | 39.51866 | -76.93253 | 37915 ft | 446 kts | 242° |
| 2026-05-06 02:10 | 39.47779 | -76.99413 | 37918 ft | 457 kts | 233° |
| 2026-05-06 02:11 | 39.42885 | -77.04837 | 37916 ft | 466 kts | 228° |
| 2026-05-06 02:11 | 39.37843 | -77.10105 | 37883 ft | 467 kts | 228° |
| 2026-05-06 02:12 | 39.32807 | -77.15394 | 37905 ft | 467 kts | 228° |
| 2026-05-06 02:12 | 39.27768 | -77.20679 | 37895 ft | 466 kts | 228° |
| 2026-05-06 02:13 | 39.22732 | -77.25945 | 37919 ft | 465 kts | 228° |
| 2026-05-06 02:13 | 39.17708 | -77.31188 | 37919 ft | 464 kts | 228° |
| 2026-05-06 02:14 | 39.12693 | -77.36420 | 37929 ft | 464 kts | 228° |
| 2026-05-06 02:14 | 39.07712 | -77.41600 | 37927 ft | 463 kts | 228° |
| 2026-05-06 02:15 | 39.02697 | -77.46810 | 37915 ft | 463 kts | 228° |
| 2026-05-06 02:15 | 38.97681 | -77.52007 | 37915 ft | 463 kts | 228° |
| 2026-05-06 02:16 | 38.92653 | -77.57206 | 37888 ft | 464 kts | 228° |
| 2026-05-06 02:16 | 38.87633 | -77.62384 | 37913 ft | 461 kts | 228° |
| 2026-05-06 02:17 | 38.82638 | -77.67532 | 37933 ft | 460 kts | 229° |
| 2026-05-06 02:17 | 38.77643 | -77.72674 | 37929 ft | 460 kts | 228° |
| 2026-05-06 02:18 | 38.72654 | -77.77793 | 37932 ft | 459 kts | 229° |
| 2026-05-06 02:18 | 38.67674 | -77.82898 | 37904 ft | 459 kts | 229° |
| 2026-05-06 02:19 | 38.63097 | -77.88438 | 37923 ft | 447 kts | 238° |
| 2026-05-06 02:19 | 38.59326 | -77.94660 | 37919 ft | 441 kts | 243° |
| 2026-05-06 02:20 | 38.53833 | -78.04065 | 37944 ft | 440 kts | 242° |
| 2026-05-06 02:21 | 38.50153 | -78.10312 | 37943 ft | 440 kts | 242° |
| 2026-05-06 02:21 | 38.46470 | -78.16551 | 37931 ft | 440 kts | 242° |
| 2026-05-06 02:22 | 38.42781 | -78.22791 | 37928 ft | 441 kts | 242° |
| 2026-05-06 02:22 | 38.39082 | -78.29030 | 37900 ft | 441 kts | 242° |
| 2026-05-06 02:23 | 38.35382 | -78.35267 | 37908 ft | 441 kts | 242° |
| 2026-05-06 02:23 | 38.31676 | -78.41496 | 37872 ft | 441 kts | 242° |
| 2026-05-06 02:24 | 38.27969 | -78.47715 | 37902 ft | 441 kts | 242° |
| 2026-05-06 02:24 | 38.24250 | -78.53948 | 37914 ft | 442 kts | 242° |
| 2026-05-06 02:25 | 38.20552 | -78.60133 | 37912 ft | 442 kts | 242° |
| 2026-05-06 02:25 | 38.16824 | -78.66349 | 37922 ft | 442 kts | 242° |
| 2026-05-06 02:26 | 38.13095 | -78.72560 | 37908 ft | 442 kts | 242° |
| 2026-05-06 02:26 | 38.09366 | -78.78769 | 37933 ft | 442 kts | 242° |
| 2026-05-06 02:27 | 38.05628 | -78.84972 | 37935 ft | 443 kts | 242° |
| 2026-05-06 02:27 | 38.01878 | -78.91175 | 37925 ft | 443 kts | 242° |
| 2026-05-06 02:28 | 37.98133 | -78.97365 | 37924 ft | 442 kts | 242° |
| 2026-05-06 02:28 | 37.94388 | -79.03550 | 37918 ft | 443 kts | 242° |
| 2026-05-06 02:29 | 37.90636 | -79.09718 | 37948 ft | 442 kts | 241° |
| 2026-05-06 02:29 | 37.86535 | -79.15594 | 37968 ft | 446 kts | 238° |
| 2026-05-06 02:30 | 37.82357 | -79.21402 | 37987 ft | 446 kts | 238° |
| 2026-05-06 02:30 | 37.78191 | -79.27202 | 37998 ft | 445 kts | 238° |
| 2026-05-06 02:31 | 37.74018 | -79.32994 | 38003 ft | 446 kts | 238° |
| 2026-05-06 02:31 | 37.69833 | -79.38787 | 37982 ft | 446 kts | 238° |
| 2026-05-06 02:32 | 37.65648 | -79.44576 | 37993 ft | 447 kts | 238° |
| 2026-05-06 02:32 | 37.61465 | -79.50346 | 37980 ft | 445 kts | 238° |
| 2026-05-06 02:33 | 37.57276 | -79.56122 | 37977 ft | 446 kts | 237° |
| 2026-05-06 02:33 | 37.55888 | -79.58033 | 37963 ft | 446 kts | 237° |
| 2026-05-06 02:34 | 37.48935 | -79.67576 | 37962 ft | 445 kts | 237° |
| 2026-05-06 02:34 | 37.44739 | -79.73333 | 37986 ft | 447 kts | 237° |
| 2026-05-06 02:35 | 37.40519 | -79.79103 | 37994 ft | 448 kts | 237° |
| 2026-05-06 02:35 | 37.36301 | -79.84858 | 38007 ft | 447 kts | 237° |
| 2026-05-06 02:36 | 37.32089 | -79.90605 | 38008 ft | 447 kts | 237° |
| 2026-05-06 02:36 | 37.27874 | -79.96339 | 37984 ft | 446 kts | 237° |
| 2026-05-06 02:37 | 37.23662 | -80.02053 | 37982 ft | 446 kts | 237° |
| 2026-05-06 02:37 | 37.19441 | -80.07779 | 37997 ft | 447 kts | 237° |
| 2026-05-06 02:38 | 37.15922 | -80.12541 | 37975 ft | 448 kts | 237° |
| 2026-05-06 02:38 | 37.11678 | -80.18279 | 38005 ft | 448 kts | 237° |
| 2026-05-06 02:39 | 37.07445 | -80.23987 | 38014 ft | 446 kts | 237° |
| 2026-05-06 02:39 | 37.02535 | -80.30603 | 38016 ft | 447 kts | 237° |
| 2026-05-06 02:40 | 36.98943 | -80.35340 | 38004 ft | 449 kts | 236° |
| 2026-05-06 02:40 | 36.94554 | -80.40910 | 37997 ft | 450 kts | 236° |
| 2026-05-06 02:41 | 36.90172 | -80.46484 | 37967 ft | 450 kts | 236° |
| 2026-05-06 02:41 | 36.85821 | -80.52034 | 37941 ft | 450 kts | 236° |
| 2026-05-06 02:42 | 36.81418 | -80.57645 | 37959 ft | 448 kts | 236° |
| 2026-05-06 02:42 | 36.77081 | -80.63161 | 38019 ft | 448 kts | 236° |
| 2026-05-06 02:43 | 36.72717 | -80.68705 | 38028 ft | 448 kts | 236° |
| 2026-05-06 02:43 | 36.68347 | -80.74245 | 38031 ft | 448 kts | 236° |
| 2026-05-06 02:44 | 36.63972 | -80.79781 | 38022 ft | 448 kts | 236° |
| 2026-05-06 02:44 | 36.59591 | -80.85316 | 37972 ft | 449 kts | 236° |
| 2026-05-06 02:45 | 36.55199 | -80.90854 | 37928 ft | 450 kts | 236° |
| 2026-05-06 02:45 | 36.50801 | -80.96392 | 37957 ft | 450 kts | 236° |
| 2026-05-06 02:46 | 36.46395 | -81.01930 | 37979 ft | 450 kts | 236° |
| 2026-05-06 02:46 | 36.41992 | -81.07452 | 37994 ft | 450 kts | 236° |
| 2026-05-06 02:47 | 36.37584 | -81.12973 | 38006 ft | 451 kts | 236° |
| 2026-05-06 02:47 | 36.33170 | -81.18497 | 38014 ft | 451 kts | 236° |
| 2026-05-06 02:48 | 36.28744 | -81.24029 | 38012 ft | 452 kts | 236° |
| 2026-05-06 02:48 | 36.24348 | -81.29522 | 38030 ft | 451 kts | 235° |
| 2026-05-06 02:49 | 36.19930 | -81.35023 | 38024 ft | 450 kts | 236° |
| 2026-05-06 02:49 | 36.15488 | -81.40546 | 38003 ft | 450 kts | 236° |
| 2026-05-06 02:50 | 36.11101 | -81.45998 | 37981 ft | 451 kts | 235° |
| 2026-05-06 02:50 | 36.06665 | -81.51495 | 37968 ft | 451 kts | 235° |
| 2026-05-06 02:51 | 36.02232 | -81.56986 | 37964 ft | 452 kts | 235° |
| 2026-05-06 02:51 | 35.97790 | -81.62469 | 37965 ft | 451 kts | 235° |
| 2026-05-06 02:52 | 35.93349 | -81.67947 | 37964 ft | 451 kts | 235° |
| 2026-05-06 02:52 | 35.88938 | -81.73385 | 37956 ft | 451 kts | 235° |
| 2026-05-06 02:53 | 35.84500 | -81.78843 | 38017 ft | 451 kts | 235° |
| 2026-05-06 02:53 | 35.80056 | -81.84298 | 38001 ft | 450 kts | 235° |
| 2026-05-06 02:54 | 35.75589 | -81.89712 | 37986 ft | 451 kts | 234° |
| 2026-05-06 02:54 | 35.71084 | -81.95085 | 37967 ft | 451 kts | 234° |
| 2026-05-06 02:55 | 35.66575 | -82.00464 | 37976 ft | 451 kts | 234° |
| 2026-05-06 02:55 | 35.62073 | -82.05833 | 37981 ft | 451 kts | 234° |
| 2026-05-06 02:56 | 35.57570 | -82.11202 | 37985 ft | 451 kts | 234° |
| 2026-05-06 02:56 | 35.53085 | -82.16527 | 37981 ft | 451 kts | 234° |
| 2026-05-06 02:57 | 35.48607 | -82.21853 | 37969 ft | 450 kts | 234° |
| 2026-05-06 02:57 | 35.44100 | -82.27192 | 38002 ft | 446 kts | 234° |
| 2026-05-06 02:58 | 35.39700 | -82.32497 | 37998 ft | 447 kts | 236° |
| 2026-05-06 02:58 | 35.35357 | -82.37954 | 37991 ft | 448 kts | 236° |
| 2026-05-06 02:59 | 35.30993 | -82.43391 | 37998 ft | 445 kts | 236° |
| 2026-05-06 02:59 | 35.26642 | -82.48787 | 37960 ft | 446 kts | 236° |
| 2026-05-06 03:00 | 35.22285 | -82.54178 | 38024 ft | 446 kts | 236° |
| 2026-05-06 03:00 | 35.17926 | -82.59566 | 38017 ft | 446 kts | 235° |
| 2026-05-06 03:01 | 35.13533 | -82.64925 | 38006 ft | 448 kts | 234° |
| 2026-05-06 03:01 | 35.09049 | -82.70220 | 38012 ft | 449 kts | 234° |
| 2026-05-06 03:02 | 35.04571 | -82.75504 | 37917 ft | 445 kts | 234° |
| 2026-05-06 03:02 | 35.02369 | -82.78105 | 37800 ft | 435 kts | 234° |
| 2026-05-06 03:02 | 35.00225 | -82.80626 | 37716 ft | 422 kts | 235° |
| 2026-05-06 03:02 | 34.98144 | -82.83077 | 37604 ft | 411 kts | 236° |
| 2026-05-06 03:03 | 34.96112 | -82.85477 | 37344 ft | 403 kts | 236° |
| 2026-05-06 03:03 | 34.94109 | -82.87852 | 36963 ft | 402 kts | 236° |
| 2026-05-06 03:03 | 34.92098 | -82.90233 | 36510 ft | 403 kts | 236° |
| 2026-05-06 03:03 | 34.90074 | -82.92587 | 36099 ft | 401 kts | 236° |
| 2026-05-06 03:04 | 34.88055 | -82.94917 | 35634 ft | 398 kts | 236° |
| 2026-05-06 03:04 | 34.86048 | -82.97232 | 35139 ft | 397 kts | 236° |
| 2026-05-06 03:04 | 34.84051 | -82.99537 | 34669 ft | 395 kts | 236° |
| 2026-05-06 03:04 | 34.82066 | -83.01830 | 34208 ft | 392 kts | 236° |
| 2026-05-06 03:05 | 34.80089 | -83.04110 | 33697 ft | 390 kts | 236° |
| 2026-05-06 03:05 | 34.78126 | -83.06383 | 33123 ft | 389 kts | 235° |
| 2026-05-06 03:05 | 34.76173 | -83.08642 | 32634 ft | 387 kts | 234° |
| 2026-05-06 03:05 | 34.74233 | -83.10887 | 32163 ft | 383 kts | 234° |
| 2026-05-06 03:06 | 34.72307 | -83.13125 | 31689 ft | 381 kts | 234° |
| 2026-05-06 03:06 | 34.70390 | -83.15338 | 31233 ft | 379 kts | 233° |
| 2026-05-06 03:06 | 34.68485 | -83.17521 | 30879 ft | 374 kts | 233° |
| 2026-05-06 03:06 | 34.66599 | -83.19679 | 30426 ft | 371 kts | 232° |
| 2026-05-06 03:07 | 34.64729 | -83.21826 | 29930 ft | 369 kts | 232° |
| 2026-05-06 03:07 | 34.62871 | -83.23956 | 29438 ft | 366 kts | 232° |
| 2026-05-06 03:07 | 34.61030 | -83.26065 | 28900 ft | 362 kts | 232° |
| 2026-05-06 03:07 | 34.59206 | -83.28157 | 28397 ft | 359 kts | 231° |
| 2026-05-06 03:08 | 34.57419 | -83.30210 | 27878 ft | 357 kts | 231° |
| 2026-05-06 03:08 | 34.55602 | -83.32297 | 27371 ft | 353 kts | 231° |
| 2026-05-06 03:08 | 34.53824 | -83.34336 | 26807 ft | 352 kts | 231° |
| 2026-05-06 03:08 | 34.52079 | -83.36342 | 26344 ft | 349 kts | 231° |
| 2026-05-06 03:09 | 34.50330 | -83.38361 | 25850 ft | 346 kts | 231° |
| 2026-05-06 03:09 | 34.48595 | -83.40359 | 25358 ft | 343 kts | 231° |
| 2026-05-06 03:09 | 34.46866 | -83.42348 | 24865 ft | 341 kts | 230° |
| 2026-05-06 03:10 | 34.43542 | -83.46167 | 23909 ft | 336 kts | 230° |
| 2026-05-06 03:10 | 34.41849 | -83.48111 | 23409 ft | 334 kts | 229° |
| 2026-05-06 03:10 | 34.40171 | -83.50031 | 22890 ft | 331 kts | 229° |
| 2026-05-06 03:10 | 34.38504 | -83.51937 | 22366 ft | 328 kts | 229° |
| 2026-05-06 03:11 | 34.36853 | -83.53825 | 21853 ft | 325 kts | 230° |
| 2026-05-06 03:11 | 34.35214 | -83.55699 | 21348 ft | 323 kts | 230° |
| 2026-05-06 03:11 | 34.33593 | -83.57552 | 20861 ft | 319 kts | 230° |
| 2026-05-06 03:11 | 34.31987 | -83.59387 | 20386 ft | 316 kts | 230° |
| 2026-05-06 03:12 | 34.30395 | -83.61204 | 19879 ft | 313 kts | 230° |
| 2026-05-06 03:12 | 34.28812 | -83.63011 | 19344 ft | 312 kts | 230° |
| 2026-05-06 03:12 | 34.27211 | -83.64776 | 18886 ft | 310 kts | 228° |
| 2026-05-06 03:12 | 34.25594 | -83.66487 | 18427 ft | 308 kts | 227° |
| 2026-05-06 03:13 | 34.23983 | -83.68175 | 17920 ft | 305 kts | 227° |
| 2026-05-06 03:13 | 34.22392 | -83.69851 | 17375 ft | 303 kts | 227° |
| 2026-05-06 03:13 | 34.20808 | -83.71523 | 16804 ft | 301 kts | 227° |
| 2026-05-06 03:13 | 34.19236 | -83.73188 | 16236 ft | 300 kts | 227° |
| 2026-05-06 03:14 | 34.17672 | -83.74851 | 15697 ft | 298 kts | 227° |
| 2026-05-06 03:14 | 34.16123 | -83.76500 | 15152 ft | 297 kts | 226° |
| 2026-05-06 03:14 | 34.14581 | -83.78140 | 14597 ft | 296 kts | 226° |
| 2026-05-06 03:14 | 34.13041 | -83.79776 | 14102 ft | 293 kts | 226° |
| 2026-05-06 03:15 | 34.11517 | -83.81394 | 13658 ft | 292 kts | 226° |
| 2026-05-06 03:15 | 34.09992 | -83.83011 | 13217 ft | 290 kts | 225° |
| 2026-05-06 03:15 | 34.08492 | -83.84603 | 12794 ft | 285 kts | 226° |
| 2026-05-06 03:15 | 34.07010 | -83.86195 | 12387 ft | 285 kts | 226° |
| 2026-05-06 03:16 | 34.05544 | -83.87769 | 12120 ft | 281 kts | 226° |
| 2026-05-06 03:16 | 34.04072 | -83.89350 | 11799 ft | 284 kts | 226° |
| 2026-05-06 03:16 | 34.02608 | -83.90923 | 11413 ft | 279 kts | 225° |
| 2026-05-06 03:16 | 34.01171 | -83.92465 | 11045 ft | 275 kts | 225° |
| 2026-05-06 03:17 | 33.99747 | -83.93992 | 10664 ft | 274 kts | 225° |
| 2026-05-06 03:17 | 33.98320 | -83.95499 | 10292 ft | 272 kts | 221° |
| 2026-05-06 03:17 | 33.96643 | -83.96553 | 9912 ft | 276 kts | 201° |
| 2026-05-06 03:17 | 33.94745 | -83.96813 | 9513 ft | 282 kts | 183° |
| 2026-05-06 03:18 | 33.92786 | -83.96689 | 9160 ft | 280 kts | 182° |
| 2026-05-06 03:18 | 33.90853 | -83.96571 | 9005 ft | 279 kts | 183° |
| 2026-05-06 03:18 | 33.88910 | -83.96474 | 8856 ft | 279 kts | 183° |
| 2026-05-06 03:18 | 33.86969 | -83.96389 | 8695 ft | 278 kts | 183° |
| 2026-05-06 03:19 | 33.85045 | -83.96306 | 8554 ft | 276 kts | 183° |
| 2026-05-06 03:19 | 33.83126 | -83.96230 | 8400 ft | 276 kts | 183° |
| 2026-05-06 03:19 | 33.81206 | -83.96150 | 8253 ft | 275 kts | 183° |
| 2026-05-06 03:19 | 33.79298 | -83.96070 | 8093 ft | 275 kts | 183° |
| 2026-05-06 03:20 | 33.75668 | -83.96053 | 7785 ft | 241 kts | 192° |
| 2026-05-06 03:20 | 33.74100 | -83.96493 | 7620 ft | 221 kts | 204° |
| 2026-05-06 03:20 | 33.72730 | -83.97194 | 7469 ft | 210 kts | 208° |
| 2026-05-06 03:21 | 33.71376 | -83.97906 | 7333 ft | 214 kts | 207° |
| 2026-05-06 03:21 | 33.70018 | -83.98605 | 7183 ft | 211 kts | 207° |
| 2026-05-06 03:21 | 33.68664 | -83.99294 | 7038 ft | 213 kts | 206° |
| 2026-05-06 03:21 | 33.67304 | -83.99958 | 6894 ft | 209 kts | 205° |
| 2026-05-06 03:22 | 33.66005 | -84.00705 | 6785 ft | 206 kts | 219° |
| 2026-05-06 03:22 | 33.65181 | -84.02076 | 6704 ft | 206 kts | 250° |
| 2026-05-06 03:22 | 33.64950 | -84.03711 | 6631 ft | 193 kts | 265° |
| 2026-05-06 03:22 | 33.64956 | -84.05280 | 6478 ft | 184 kts | 268° |
| 2026-05-06 03:23 | 33.64974 | -84.06760 | 6300 ft | 175 kts | 265° |
| 2026-05-06 03:23 | 33.64961 | -84.08210 | 6106 ft | 168 kts | 266° |
| 2026-05-06 03:23 | 33.64962 | -84.09587 | 5902 ft | 161 kts | 265° |
| 2026-05-06 03:23 | 33.64959 | -84.10875 | 5714 ft | 155 kts | 265° |
| 2026-05-06 03:24 | 33.64966 | -84.12139 | 5539 ft | 145 kts | 265° |
| 2026-05-06 03:24 | 33.64962 | -84.13317 | 5349 ft | 143 kts | 264° |
| 2026-05-06 03:24 | 33.64960 | -84.14525 | 5180 ft | 140 kts | 265° |
| 2026-05-06 03:24 | 33.64959 | -84.15697 | 5001 ft | 143 kts | 265° |
| 2026-05-06 03:25 | 33.64961 | -84.16866 | 4824 ft | 142 kts | 264° |
| 2026-05-06 03:25 | 33.64957 | -84.18072 | 4625 ft | 140 kts | 264° |
| 2026-05-06 03:25 | 33.64955 | -84.19237 | 4462 ft | 144 kts | 264° |
| 2026-05-06 03:25 | 33.64959 | -84.20410 | 4275 ft | 140 kts | 264° |
| 2026-05-06 03:26 | 33.64957 | -84.21591 | 4092 ft | 141 kts | 264° |
| 2026-05-06 03:26 | 33.64955 | -84.22758 | 3904 ft | 141 kts | 263° |
| 2026-05-06 03:26 | 33.64953 | -84.23941 | 3718 ft | 141 kts | 263° |
| 2026-05-06 03:26 | 33.64956 | -84.25112 | 3529 ft | 141 kts | 262° |
| 2026-05-06 03:27 | 33.64959 | -84.26283 | 3364 ft | 140 kts | 263° |
| 2026-05-06 03:27 | 33.64955 | -84.27460 | 3175 ft | 141 kts | 262° |
| 2026-05-06 03:27 | 33.64958 | -84.28622 | 2994 ft | 140 kts | 263° |
| 2026-05-06 03:27 | 33.64954 | -84.29790 | 2821 ft | 140 kts | 261° |
| 2026-05-06 03:28 | 33.64956 | -84.30976 | 2631 ft | 141 kts | 262° |
| 2026-05-06 03:28 | 33.64954 | -84.32143 | 2455 ft | 143 kts | 261° |
| 2026-05-06 03:28 | 33.64958 | -84.33313 | 2265 ft | 138 kts | 262° |
| 2026-05-06 03:28 | 33.64952 | -84.34498 | 2076 ft | 142 kts | 262° |
| 2026-05-06 03:29 | 33.64961 | -84.35673 | 1890 ft | 144 kts | 261° |
| 2026-05-06 03:29 | 33.64952 | -84.36853 | 1713 ft | 144 kts | 262° |
| 2026-05-06 03:29 | 33.64940 | -84.38057 | 1547 ft | 141 kts | 265° |
| 2026-05-06 03:29 | 33.64943 | -84.39252 | 1353 ft | 148 kts | 268° |
| 2026-05-06 03:30 | 33.64953 | -84.40465 | 1169 ft | 141 kts | 268° |
| 2026-05-06 03:30 | 33.64955 | -84.41590 | 1044 ft | 126 kts | 265° |
| 2026-05-06 03:30 | 33.64954 | -84.42312 | 1042 ft | 61 kts | 270° |
| 2026-05-06 03:30 | 33.64902 | -84.42730 | 1042 ft | 40 kts | 245° |
| 2026-05-06 03:31 | 33.64772 | -84.42870 | 1042 ft | 20 kts | 170° |
| 2026-05-06 03:31 | 33.64645 | -84.42858 | 1042 ft | 19 kts | 160° |
| 2026-05-06 03:31 | 33.64544 | -84.42872 | 1041 ft | 15 kts | 242° |
| 2026-05-06 03:31 | 33.64541 | -84.42996 | 1042 ft | 15 kts | 270° |
| 2026-05-06 03:32 | 33.64541 | -84.43129 | 1042 ft | 17 kts | 270° |
| 2026-05-06 03:32 | 33.64543 | -84.43274 | 1042 ft | 18 kts | 271° |
| 2026-05-06 03:32 | 33.64532 | -84.43415 | 1042 ft | 11 kts | 236° |
| 2026-05-06 03:32 | 33.64461 | -84.43417 | 1041 ft | 11 kts | 163° |
| 2026-05-06 03:33 | 33.64381 | -84.43396 | 1041 ft | 13 kts | 174° |
| 2026-05-06 03:33 | 33.64289 | -84.43397 | 1041 ft | 14 kts | 180° |
| 2026-05-06 03:33 | 33.64188 | -84.43397 | 1041 ft | 15 kts | 180° |
| 2026-05-06 03:33 | 33.64079 | -84.43396 | 1041 ft | 16 kts | 179° |
| 2026-05-06 03:34 | 33.63963 | -84.43395 | 1041 ft | 17 kts | 180° |
| 2026-05-06 03:34 | 33.63841 | -84.43395 | 1041 ft | 18 kts | 180° |
| 2026-05-06 03:34 | 33.63741 | -84.43396 | 1041 ft | 10 kts | 180° |
| 2026-05-06 03:34 | 33.63680 | -84.43356 | 1042 ft | 11 kts | 126° |
| 2026-05-06 03:35 | 33.63665 | -84.43261 | 1041 ft | 12 kts | 92° |
| 2026-05-06 03:35 | 33.63664 | -84.43150 | 1041 ft | 14 kts | 90° |
| 2026-05-06 03:35 | 33.63665 | -84.43024 | 1041 ft | 16 kts | 89° |
| 2026-05-06 03:35 | 33.63665 | -84.42884 | 1041 ft | 18 kts | 91° |
| 2026-05-06 03:36 | 33.63664 | -84.42806 | 1041 ft | 11 kts | 88° |
| 2026-05-06 03:36 | 33.63711 | -84.42742 | 1041 ft | 11 kts | 18° |
| 2026-05-06 03:36 | 33.63797 | -84.42735 | 1041 ft | 14 kts | 1° |
| 2026-05-06 03:36 | 33.63889 | -84.42736 | 1041 ft | 11 kts | 359° |
| 2026-05-06 03:37 | 33.63937 | -84.42690 | 1041 ft | 9 kts | 69° |
| 2026-05-06 03:37 | 33.63942 | -84.42637 | 1041 ft | 2 kts | 87° |
| 2026-05-06 03:37 | 33.63942 | -84.42633 | 1041 ft | 0 kts | 87° |